createdAt,value
2019-06-20T00:00:02.276Z,40.25
2019-06-20T00:02:31.441Z,41.50
2019-06-20T00:05:00.663Z,43.42
2019-06-20T00:07:29.935Z,39.38
2019-06-20T00:09:59.186Z,39.08
2019-06-20T00:12:28.538Z,41.75
2019-06-20T00:14:58.044Z,41.95
2019-06-20T00:17:27.205Z,39.73
2019-06-20T00:19:56.279Z,41.35
2019-06-20T00:22:25.651Z,38.13
2019-06-20T00:24:54.904Z,41.60
2019-06-20T00:27:24.087Z,36.83
2019-06-20T00:29:53.200Z,38.73
2019-06-20T00:32:22.322Z,31.37
2019-06-20T00:34:51.473Z,32.30
2019-06-20T00:37:20.634Z,35.98
2019-06-20T00:39:49.793Z,34.73
2019-06-20T00:42:19.039Z,31.62
2019-06-20T00:44:48.259Z,32.20
2019-06-20T00:47:17.554Z,34.48
2019-06-20T00:49:46.618Z,39.15
2019-06-20T00:52:16.023Z,33.23
2019-06-20T00:54:45.312Z,35.70
2019-06-20T00:57:14.472Z,36.42
2019-06-20T00:59:43.650Z,39.98
2019-06-20T01:02:12.901Z,37.40
2019-06-20T01:04:42.002Z,40.90
2019-06-20T01:07:11.249Z,42.35
2019-06-20T01:09:40.475Z,36.83
2019-06-20T01:12:09.641Z,34.10
2019-06-20T01:14:38.867Z,32.73
2019-06-20T01:17:08.038Z,36.25
2019-06-20T01:19:37.305Z,34.03
2019-06-20T01:22:06.381Z,33.35
2019-06-20T01:24:35.587Z,32.25
2019-06-20T01:27:04.702Z,36.33
2019-06-20T01:29:33.892Z,34.30
2019-06-20T01:32:03.169Z,38.42
2019-06-20T01:34:32.355Z,32.93
2019-06-20T01:37:01.655Z,31.27
2019-06-20T01:39:30.656Z,30.37
2019-06-20T01:41:59.709Z,30.43
2019-06-20T01:44:29.006Z,31.60
2019-06-20T01:46:58.315Z,31.25
2019-06-20T01:49:27.604Z,30.40
2019-06-20T01:51:56.687Z,30.77
2019-06-20T01:54:25.907Z,35.30
2019-06-20T01:56:55.098Z,29.52
2019-06-20T01:59:24.331Z,26.37
2019-06-20T02:01:53.717Z,28.87
2019-06-20T02:04:22.819Z,29.82
2019-06-20T02:06:51.922Z,29.57
2019-06-20T02:09:21.035Z,31.90
2019-06-20T02:11:50.210Z,32.53
2019-06-20T02:14:19.419Z,32.85
2019-06-20T02:16:48.631Z,25.88
2019-06-20T02:19:17.826Z,27.45
2019-06-20T02:21:47.111Z,29.40
2019-06-20T02:24:16.186Z,29.32
2019-06-20T02:26:45.467Z,33.42
2019-06-20T02:29:14.740Z,30.30
2019-06-20T02:31:43.942Z,33.73
2019-06-20T02:34:13.106Z,38.17
2019-06-20T02:36:42.196Z,35.80
2019-06-20T02:39:11.414Z,34.18
2019-06-20T02:41:40.761Z,42.05
2019-06-20T02:44:28.317Z,36.90
2019-06-20T02:46:41.409Z,41.55
2019-06-20T02:49:10.555Z,42.33
2019-06-20T02:51:40.008Z,43.87
2019-06-20T02:54:09.161Z,43.65
2019-06-20T02:56:38.566Z,39.05
2019-06-20T02:59:07.792Z,48.08
2019-06-20T03:01:37.044Z,45.78
2019-06-20T03:04:06.411Z,43.38
2019-06-20T03:06:35.710Z,45.85
2019-06-20T03:09:07.025Z,48.75
2019-06-20T03:11:36.148Z,48.52
2019-06-20T03:14:05.818Z,49.55
2019-06-20T03:16:35.105Z,54.10
2019-06-20T03:19:04.351Z,50.73
2019-06-20T03:21:33.452Z,51.60
2019-06-20T03:24:02.551Z,53.35
2019-06-20T03:26:31.848Z,48.02
2019-06-20T03:29:01.161Z,49.77
2019-06-20T03:31:30.263Z,46.68
2019-06-20T03:33:59.445Z,48.40
2019-06-20T03:36:28.706Z,48.45
2019-06-20T03:38:57.839Z,42.58
2019-06-20T03:41:26.872Z,45.52
2019-06-20T03:43:59.027Z,48.23
2019-06-20T03:46:26.955Z,49.55
2019-06-20T03:48:56.116Z,48.63
2019-06-20T03:51:25.260Z,44.80
2019-06-20T03:53:54.413Z,51.90
2019-06-20T03:56:23.689Z,46.90
2019-06-20T03:58:52.841Z,44.38
2019-06-20T04:01:22.018Z,40.63
2019-06-20T04:03:51.071Z,41.55
2019-06-20T04:06:20.382Z,38.33
2019-06-20T04:08:49.417Z,33.65
2019-06-20T04:11:18.593Z,38.53
2019-06-20T04:13:47.658Z,35.75
2019-06-20T04:16:16.820Z,36.15
2019-06-20T04:18:45.913Z,37.13
2019-06-20T04:21:15.186Z,38.25
2019-06-20T04:23:44.421Z,36.93
2019-06-20T04:26:13.470Z,33.10
2019-06-20T04:28:42.615Z,32.55
2019-06-20T04:31:11.740Z,37.15
2019-06-20T04:33:40.867Z,39.80
2019-06-20T04:36:10.001Z,36.03
2019-06-20T04:38:39.082Z,35.08
2019-06-20T04:41:08.270Z,35.73
2019-06-20T04:43:37.662Z,37.83
2019-06-20T04:46:12.508Z,37.05
2019-06-20T04:48:41.723Z,39.67
2019-06-20T04:51:11.234Z,43.63
2019-06-20T04:53:40.313Z,42.50
2019-06-20T04:56:09.620Z,38.20
2019-06-20T04:58:38.974Z,30.52
2019-06-20T05:01:08.277Z,30.55
2019-06-20T05:03:37.375Z,25.00
2019-06-20T05:06:06.620Z,24.85
2019-06-20T05:08:35.801Z,26.50
2019-06-20T05:11:04.910Z,32.13
2019-06-20T05:13:34.097Z,28.67
2019-06-20T05:16:03.674Z,29.52
2019-06-20T05:18:32.743Z,21.37
2019-06-20T05:21:01.767Z,21.68
2019-06-20T05:23:30.902Z,25.48
2019-06-20T05:26:00.171Z,21.35
2019-06-20T05:28:29.349Z,18.10
2019-06-20T05:30:59.134Z,18.85
2019-06-20T05:33:29.791Z,18.67
2019-06-20T05:36:00.025Z,19.65
2019-06-20T05:38:29.220Z,15.58
2019-06-20T05:40:58.621Z,17.87
2019-06-20T05:43:27.875Z,15.18
2019-06-20T05:46:08.787Z,19.37
2019-06-20T05:48:28.181Z,17.25
2019-06-20T05:50:57.630Z,19.67
2019-06-20T05:53:27.186Z,21.10
2019-06-20T05:55:56.298Z,20.40
2019-06-20T05:58:25.502Z,18.15
2019-06-20T06:00:54.692Z,16.85
2019-06-20T06:03:23.738Z,16.65
2019-06-20T06:05:53.153Z,18.27
2019-06-20T06:08:22.187Z,18.12
2019-06-20T06:10:51.569Z,17.67
2019-06-20T06:13:20.694Z,18.92
2019-06-20T06:15:49.914Z,15.10
2019-06-20T06:18:19.009Z,15.63
2019-06-20T06:20:48.228Z,15.75
2019-06-20T06:23:17.435Z,14.07
2019-06-20T06:25:46.711Z,18.70
2019-06-20T06:28:15.880Z,15.08
2019-06-20T06:30:45.049Z,12.58
2019-06-20T06:33:14.255Z,12.07
2019-06-20T06:35:43.618Z,11.53
2019-06-20T06:38:12.853Z,11.55
2019-06-20T06:40:41.978Z,14.03
2019-06-20T06:43:10.944Z,13.68
2019-06-20T06:45:40.198Z,13.10
2019-06-20T06:48:09.398Z,14.75
2019-06-20T06:50:38.730Z,11.90
2019-06-20T06:53:08.046Z,14.00
2019-06-20T06:55:37.153Z,12.98
2019-06-20T06:58:06.310Z,16.95
2019-06-20T07:00:35.438Z,16.35
2019-06-20T07:03:04.751Z,15.28
2019-06-20T07:05:33.986Z,17.90
2019-06-20T07:08:03.184Z,16.62
2019-06-20T07:10:32.366Z,21.23
2019-06-20T07:13:01.601Z,23.02
2019-06-20T07:15:30.718Z,22.17
2019-06-20T07:17:59.870Z,24.67
2019-06-20T07:20:28.975Z,25.92
2019-06-20T07:22:58.086Z,27.48
2019-06-20T07:25:27.143Z,27.60
2019-06-20T07:27:56.195Z,25.23
2019-06-20T07:30:25.529Z,31.65
2019-06-20T07:32:54.572Z,27.42
2019-06-20T07:35:23.633Z,31.62
2019-06-20T07:37:52.997Z,36.95
2019-06-20T07:40:22.733Z,26.77
2019-06-20T07:42:51.845Z,25.95
2019-06-20T07:45:27.282Z,28.32
2019-06-20T07:47:56.794Z,28.02
2019-06-20T07:50:26.032Z,28.17
2019-06-20T07:53:01.853Z,25.25
2019-06-20T07:55:26.151Z,24.92
2019-06-20T07:57:55.255Z,25.57
2019-06-20T08:00:26.681Z,24.85
2019-06-20T08:02:55.886Z,29.37
2019-06-20T08:05:24.990Z,27.45
2019-06-20T08:07:55.180Z,28.83
2019-06-20T08:10:28.255Z,28.62
2019-06-20T08:12:57.487Z,30.48
2019-06-20T08:15:27.670Z,33.48
2019-06-20T08:18:00.081Z,29.20
2019-06-20T08:20:35.555Z,32.88
2019-06-20T08:23:06.042Z,31.45
2019-06-20T08:25:35.468Z,30.25
2019-06-20T08:28:04.994Z,32.88
2019-06-20T08:30:36.544Z,35.65
2019-06-20T08:33:11.478Z,31.90
2019-06-20T08:35:36.633Z,28.12
2019-06-20T08:38:07.899Z,32.38
2019-06-20T08:40:43.049Z,31.55
2019-06-20T08:43:12.153Z,27.17
2019-06-20T08:45:42.699Z,25.43
2019-06-20T08:48:12.267Z,21.20
2019-06-20T08:50:41.502Z,24.15
2019-06-20T08:53:10.907Z,25.20
2019-06-20T08:55:40.060Z,23.00
2019-06-20T08:58:09.210Z,26.42
2019-06-20T09:00:38.829Z,19.15
2019-06-20T09:03:07.939Z,19.55
2019-06-20T09:05:37.363Z,20.40
2019-06-20T09:08:10.876Z,17.92
2019-06-20T09:10:39.165Z,15.38
2019-06-20T09:13:10.486Z,19.95
2019-06-20T09:15:39.895Z,15.72
2019-06-20T09:18:09.172Z,15.55
2019-06-20T09:20:38.337Z,15.40
2019-06-20T09:23:07.599Z,11.95
2019-06-20T09:25:36.833Z,10.10
2019-06-20T09:28:06.212Z,7.67
2019-06-20T09:30:35.971Z,5.30
2019-06-20T09:33:05.253Z,5.33
2019-06-20T09:35:34.479Z,2.00
2019-06-20T09:38:04.074Z,1.92
2019-06-20T09:40:33.198Z,1.92
2019-06-20T09:43:02.881Z,2.05
2019-06-20T09:45:33.065Z,2.15
2019-06-20T09:48:02.797Z,2.62
2019-06-20T09:50:32.088Z,7.85
2019-06-20T09:53:01.178Z,2.77
2019-06-20T09:55:30.421Z,4.05
2019-06-20T09:57:59.617Z,3.98
2019-06-20T10:00:29.224Z,5.55
2019-06-20T10:02:58.224Z,3.75
2019-06-20T10:05:27.537Z,5.92
2019-06-20T10:07:56.874Z,5.72
2019-06-20T10:10:29.307Z,3.70
2019-06-20T10:12:58.731Z,4.72
2019-06-20T10:15:28.712Z,4.47
2019-06-20T10:17:57.937Z,3.72
2019-06-20T10:20:29.174Z,3.10
2019-06-20T10:22:58.295Z,3.52
2019-06-20T10:25:27.523Z,6.50
2019-06-20T10:27:57.870Z,3.45
2019-06-20T10:30:28.188Z,4.15
2019-06-20T10:32:57.788Z,3.42
2019-06-20T10:35:27.042Z,4.08
2019-06-20T10:37:57.255Z,8.73
2019-06-20T10:40:27.735Z,8.90
2019-06-20T10:42:57.082Z,7.08
2019-06-20T10:45:26.996Z,7.12
2019-06-20T10:47:56.256Z,3.80
2019-06-20T10:50:25.391Z,2.72
2019-06-20T10:52:54.471Z,3.52
2019-06-20T10:55:23.798Z,2.98
2019-06-20T10:57:53.110Z,4.45
2019-06-20T11:00:30.683Z,4.65
2019-06-20T11:02:54.642Z,2.22
2019-06-20T11:05:23.932Z,3.37
2019-06-20T11:07:53.050Z,2.85
2019-06-20T11:10:22.655Z,3.12
2019-06-20T11:12:55.784Z,3.87
2019-06-20T11:15:23.795Z,2.17
2019-06-20T11:17:56.128Z,1.30
2019-06-20T11:20:23.924Z,1.82
2019-06-20T11:22:53.178Z,3.62
2019-06-20T11:25:22.538Z,2.20
2019-06-20T11:27:51.840Z,4.12
2019-06-20T11:30:21.602Z,2.27
2019-06-20T11:32:50.744Z,1.77
2019-06-20T11:35:20.181Z,2.50
2019-06-20T11:37:49.369Z,1.98
2019-06-20T11:40:18.676Z,3.67
2019-06-20T11:42:47.977Z,3.02
2019-06-20T11:45:21.173Z,2.52
2019-06-20T11:47:50.254Z,2.37
2019-06-20T11:50:19.690Z,3.58
2019-06-20T11:52:49.069Z,2.83
2019-06-20T11:55:18.957Z,2.95
2019-06-20T11:57:48.040Z,2.72
2019-06-20T12:00:18.381Z,5.15
2019-06-20T12:02:48.278Z,3.02
2019-06-20T12:05:18.084Z,5.30
2019-06-20T12:07:47.985Z,4.12
2019-06-20T12:10:19.822Z,4.72
2019-06-20T12:12:49.254Z,3.92
2019-06-20T12:15:19.094Z,3.52
2019-06-20T12:17:49.348Z,5.50
2019-06-20T12:20:19.179Z,3.10
2019-06-20T12:22:50.459Z,4.50
2019-06-20T12:25:19.742Z,5.78
2019-06-20T12:27:49.744Z,4.42
2019-06-20T12:30:20.371Z,5.40
2019-06-20T12:32:49.627Z,5.22
2019-06-20T12:35:19.082Z,3.22
2019-06-20T12:37:49.811Z,3.60
2019-06-20T12:40:19.524Z,5.55
2019-06-20T12:42:49.406Z,4.62
2019-06-20T12:45:19.193Z,3.90
2019-06-20T12:47:48.245Z,3.42
2019-06-20T12:50:17.626Z,4.67
2019-06-20T12:52:47.699Z,5.08
2019-06-20T12:55:17.016Z,3.87
2019-06-20T12:57:46.386Z,5.42
2019-06-20T13:00:16.152Z,7.80
2019-06-20T13:02:45.495Z,5.50
2019-06-20T13:05:16.786Z,5.35
2019-06-20T13:07:48.327Z,5.62
2019-06-20T13:10:17.695Z,5.45
2019-06-20T13:12:47.168Z,6.53
2019-06-20T13:15:16.239Z,7.78
2019-06-20T13:17:46.753Z,6.33
2019-06-20T13:20:16.332Z,6.12
2019-06-20T13:22:46.580Z,5.92
2019-06-20T13:25:15.873Z,4.65
2019-06-20T13:27:45.701Z,6.87
2019-06-20T13:30:14.930Z,5.30
2019-06-20T13:32:45.358Z,7.12
2019-06-20T13:35:15.366Z,8.93
2019-06-20T13:37:45.637Z,8.28
2019-06-20T13:40:16.022Z,6.00
2019-06-20T13:42:46.128Z,6.60
2019-06-20T13:45:23.401Z,8.05
2019-06-20T13:47:52.734Z,7.17
2019-06-20T13:50:22.711Z,8.30
2019-06-20T13:52:51.946Z,8.05
2019-06-20T13:55:21.845Z,8.30
2019-06-20T13:57:51.102Z,8.83
2019-06-20T14:00:22.357Z,7.55
2019-06-20T14:02:51.866Z,9.28
2019-06-20T14:05:21.221Z,9.00
2019-06-20T14:07:53.771Z,10.68
2019-06-20T14:10:22.064Z,9.23
2019-06-20T14:12:51.318Z,12.55
2019-06-20T14:15:20.692Z,7.60
2019-06-20T14:17:50.059Z,7.55
2019-06-20T14:20:19.603Z,9.10
2019-06-20T14:22:49.493Z,9.00
2019-06-20T14:25:19.912Z,6.90
2019-06-20T14:27:49.563Z,9.50
2019-06-20T14:30:21.483Z,8.80
2019-06-20T14:32:51.426Z,6.83
2019-06-20T14:35:21.181Z,8.75
2019-06-20T14:37:51.768Z,7.35
2019-06-20T14:42:57.206Z,13.03
2019-06-20T14:45:26.436Z,10.00
2019-06-20T14:47:55.874Z,10.98
2019-06-20T14:50:25.163Z,8.35
2019-06-20T14:52:54.334Z,9.13
2019-06-20T14:55:23.652Z,9.73
2019-06-20T14:57:54.456Z,12.25
2019-06-20T15:00:24.658Z,11.90
2019-06-20T15:02:57.872Z,11.18
2019-06-20T15:05:24.677Z,12.07
2019-06-20T15:07:54.267Z,13.28
2019-06-20T15:10:24.471Z,12.98
2019-06-20T15:12:54.203Z,10.55
2019-06-20T15:15:25.405Z,16.90
2019-06-20T15:17:57.482Z,17.32
2019-06-20T15:20:25.471Z,12.63
2019-06-20T15:22:54.782Z,15.78
2019-06-20T15:25:24.123Z,16.87
2019-06-20T15:27:55.069Z,16.45
2019-06-20T15:30:24.074Z,11.75
2019-06-20T15:33:04.003Z,12.80
2019-06-20T15:35:24.022Z,15.80
2019-06-20T15:37:53.766Z,14.60
2019-06-20T15:40:23.414Z,12.95
2019-06-20T15:42:53.455Z,13.90
2019-06-20T15:45:23.334Z,13.45
2019-06-20T15:47:52.418Z,15.30
2019-06-20T15:50:21.533Z,13.88
2019-06-20T15:52:50.653Z,13.28
2019-06-20T15:55:23.388Z,15.30
2019-06-20T15:57:54.219Z,16.05
2019-06-20T16:00:23.556Z,14.03
2019-06-20T16:02:52.753Z,10.63
2019-06-20T16:05:21.830Z,10.32
2019-06-20T16:07:50.894Z,10.20
2019-06-20T16:10:21.162Z,12.88
2019-06-20T16:12:50.220Z,10.68
2019-06-20T16:15:22.835Z,7.75
2019-06-20T16:17:51.892Z,8.35
2019-06-20T16:20:21.293Z,8.80
2019-06-20T16:22:50.612Z,7.55
2019-06-20T16:25:19.832Z,8.38
2019-06-20T16:27:48.866Z,8.45
2019-06-20T16:30:18.806Z,8.73
2019-06-20T16:32:47.902Z,11.15
2019-06-20T16:35:26.833Z,7.37
2019-06-20T16:38:07.258Z,9.53
2019-06-20T16:40:43.810Z,7.92
2019-06-20T16:43:12.915Z,7.87
2019-06-20T16:45:45.332Z,5.42
2019-06-20T16:48:14.374Z,4.92
2019-06-20T16:50:43.474Z,4.10
2019-06-20T16:53:12.637Z,4.85
2019-06-20T16:55:44.699Z,5.28
2019-06-20T16:58:13.940Z,4.08
2019-06-20T17:00:43.195Z,4.55
2019-06-20T17:03:12.477Z,7.58
2019-06-20T17:05:41.679Z,8.80
2019-06-20T17:08:14.356Z,5.08
2019-06-20T17:10:43.547Z,4.25
2019-06-20T17:13:12.762Z,3.58
2019-06-20T17:15:41.899Z,4.28
2019-06-20T17:18:11.195Z,5.78
2019-06-20T17:20:41.256Z,5.78
2019-06-20T17:23:10.417Z,4.30
2019-06-20T17:25:39.575Z,3.15
2019-06-20T17:28:08.747Z,5.50
2019-06-20T17:30:37.873Z,5.78
2019-06-20T17:33:07.064Z,5.60
2019-06-20T17:35:36.244Z,6.10
2019-06-20T17:38:05.357Z,9.13
2019-06-20T17:40:34.685Z,5.80
2019-06-20T17:43:03.835Z,7.10
2019-06-20T17:45:32.947Z,6.10
2019-06-20T17:48:02.310Z,6.87
2019-06-20T17:50:46.405Z,7.40
2019-06-20T17:53:16.630Z,8.25
2019-06-20T17:55:45.777Z,9.03
2019-06-20T17:58:14.762Z,7.20
2019-06-20T18:00:43.847Z,6.40
2019-06-20T18:03:13.416Z,5.75
2019-06-20T18:05:42.502Z,7.65
2019-06-20T18:08:15.347Z,9.20
2019-06-20T18:10:42.499Z,9.55
2019-06-20T18:13:11.931Z,5.45
2019-06-20T18:15:41.644Z,7.90
2019-06-20T18:18:10.799Z,6.55
2019-06-20T18:20:39.902Z,8.65
2019-06-20T18:23:08.992Z,6.65
2019-06-20T18:25:38.239Z,7.17
2019-06-20T18:28:07.443Z,6.78
2019-06-20T18:30:44.075Z,5.97
2019-06-20T18:33:14.130Z,8.68
2019-06-20T18:35:43.383Z,7.47
2019-06-20T18:38:12.574Z,11.78
2019-06-20T18:40:41.585Z,12.60
2019-06-20T18:43:11.108Z,8.60
2019-06-20T18:45:40.214Z,10.13
2019-06-20T18:48:09.360Z,6.08
2019-06-20T18:50:38.563Z,8.60
2019-06-20T18:53:07.835Z,7.83
2019-06-20T18:56:03.670Z,8.65
2019-06-20T18:58:30.201Z,10.25
2019-06-20T19:00:59.387Z,6.70
2019-06-20T19:03:28.498Z,7.95
2019-06-20T19:05:57.646Z,9.08
2019-06-20T19:08:26.802Z,7.92
2019-06-20T19:10:55.959Z,7.10
2019-06-20T19:13:28.690Z,5.40
2019-06-20T19:15:58.086Z,7.50
2019-06-20T19:18:27.119Z,5.85
2019-06-20T19:20:56.124Z,10.43
2019-06-20T19:23:25.903Z,9.18
2019-06-20T19:25:55.072Z,8.08
2019-06-20T19:28:27.056Z,7.03
2019-06-20T19:30:56.439Z,9.30
2019-06-20T19:33:28.336Z,7.47
2019-06-20T19:35:58.942Z,8.33
2019-06-20T19:38:28.102Z,7.87
2019-06-20T19:40:57.311Z,9.23
2019-06-20T19:43:27.327Z,8.98
2019-06-20T19:45:58.426Z,10.68
2019-06-20T19:48:27.675Z,12.23
2019-06-20T19:50:57.741Z,9.85
2019-06-20T19:53:26.933Z,12.13
2019-06-20T19:55:56.233Z,13.70
2019-06-20T19:58:25.327Z,6.60
2019-06-20T20:00:54.421Z,9.35
2019-06-20T20:03:23.537Z,12.58
2019-06-20T20:05:53.227Z,10.38
2019-06-20T20:08:23.446Z,8.53
2019-06-20T20:10:52.738Z,10.90
2019-06-20T20:13:21.839Z,10.23
2019-06-20T20:15:50.899Z,9.13
2019-06-20T20:18:20.423Z,12.93
2019-06-20T20:20:49.562Z,9.70
2019-06-20T20:23:18.696Z,13.93
2019-06-20T20:25:47.766Z,11.48
2019-06-20T20:28:16.939Z,6.35
2019-06-20T20:30:46.052Z,10.80
2019-06-20T20:33:15.474Z,7.25
2019-06-20T20:35:45.516Z,10.38
2019-06-20T20:38:14.731Z,13.05
2019-06-20T20:40:44.896Z,11.70
2019-06-20T20:43:14.226Z,8.83
2019-06-20T20:45:43.701Z,9.08
2019-06-20T20:48:13.292Z,8.60
2019-06-20T20:50:42.662Z,12.10
2019-06-20T20:53:11.952Z,9.50
2019-06-20T20:55:41.506Z,8.15
2019-06-20T20:58:10.731Z,9.03
2019-06-20T21:01:08.735Z,12.73
2019-06-20T21:03:38.133Z,5.95
2019-06-20T21:06:07.298Z,6.70
2019-06-20T21:08:36.480Z,8.70
2019-06-20T21:11:05.633Z,7.05
2019-06-20T21:13:35.032Z,10.90
2019-06-20T21:16:04.175Z,9.08
2019-06-20T21:18:33.664Z,8.18
2019-06-20T21:21:02.822Z,8.45
2019-06-20T21:23:31.976Z,10.43
2019-06-20T21:26:01.187Z,9.35
2019-06-20T21:28:30.306Z,13.30
2019-06-20T21:30:59.361Z,6.05
2019-06-20T21:33:28.618Z,10.88
2019-06-20T21:36:07.866Z,12.43
2019-06-20T21:38:28.730Z,8.65
2019-06-20T21:40:57.892Z,10.53
2019-06-20T21:43:27.026Z,7.08
2019-06-20T21:45:56.732Z,8.38
2019-06-20T21:48:25.895Z,16.62
2019-06-20T21:50:55.169Z,12.20
2019-06-20T21:53:24.416Z,10.95
2019-06-20T21:55:53.498Z,14.03
2019-06-20T21:58:22.623Z,8.08
2019-06-20T22:00:55.615Z,12.05
2019-06-20T22:03:24.732Z,14.35
2019-06-20T22:05:53.916Z,12.75
2019-06-20T22:08:23.002Z,13.75
2019-06-20T22:10:52.174Z,10.43
2019-06-20T22:13:21.357Z,15.88
2019-06-20T22:15:50.633Z,9.28
2019-06-20T22:18:19.882Z,13.08
2019-06-20T22:20:49.014Z,9.13
2019-06-20T22:23:18.152Z,8.08
2019-06-20T22:25:47.524Z,10.32
2019-06-20T22:28:16.820Z,12.80
2019-06-20T22:30:52.209Z,12.37
2019-06-20T22:33:21.334Z,7.78
2019-06-20T22:35:50.460Z,11.83
2019-06-20T22:38:19.834Z,13.35
2019-06-20T22:40:49.026Z,12.95
2019-06-20T22:43:18.192Z,12.28
2019-06-20T22:45:47.557Z,13.15
2019-06-20T22:48:16.863Z,13.20
2019-06-20T22:50:46.477Z,10.25
2019-06-20T22:53:15.619Z,12.50
2019-06-20T22:55:44.827Z,11.33
2019-06-20T22:58:13.930Z,12.65
2019-06-20T23:00:43.231Z,13.05
2019-06-20T23:03:12.510Z,12.55
2019-06-20T23:05:41.661Z,16.55
2019-06-20T23:08:10.760Z,11.10
2019-06-20T23:10:40.168Z,9.88
2019-06-20T23:13:09.380Z,13.50
2019-06-20T23:15:38.517Z,15.05
2019-06-20T23:18:07.664Z,18.40
2019-06-20T23:20:36.674Z,14.80
2019-06-20T23:23:06.005Z,9.05
2019-06-20T23:25:39.865Z,13.93
2019-06-20T23:28:09.355Z,11.25
2019-06-20T23:30:39.063Z,12.90
2019-06-20T23:33:08.502Z,12.68
2019-06-20T23:35:37.800Z,10.00
2019-06-20T23:38:07.559Z,15.03
2019-06-20T23:40:36.768Z,14.30
2019-06-20T23:43:06.030Z,13.25
2019-06-20T23:45:35.224Z,12.43
2019-06-20T23:48:04.567Z,14.68
2019-06-20T23:50:33.934Z,11.03
2019-06-20T23:53:08.716Z,9.63
2019-06-20T23:55:37.911Z,11.97
2019-06-20T23:58:06.915Z,12.35
